Time;durP1;ratioP1;P1;durP2;ratioP2;P2;SDS_P1;SDS_P2;PMS_P1;PMS_P2;Temp;Humidity;BMP_temperature;BMP_pressure;BME280_temperature;BME280_humidity;BME280_pressure;Samples;Min_cycle;Max_cycle;Signal;HPM_P1;HPM_P2
2024/04/21 00:01:10;;;;;;;5.80;3.50;;;;;;;2.28;100.00;101359.22;5416877;26;20330;-72
2024/04/21 00:03:36;;;;;;;6.17;3.23;;;;;;;2.23;100.00;101353.19;5416637;26;20240;-71
2024/04/21 00:06:04;;;;;;;5.23;3.70;;;;;;;2.16;100.00;101356.00;5416662;26;20236;-72
2024/04/21 00:08:32;;;;;;;5.27;3.80;;;;;;;2.06;100.00;101353.34;5416267;26;20247;-72
2024/04/21 00:11:00;;;;;;;5.10;3.83;;;;;;;2.01;100.00;101352.50;5416574;26;20587;-72
2024/04/21 00:13:25;;;;;;;8.27;3.83;;;;;;;1.94;100.00;101351.94;5416696;26;20299;-71
2024/04/21 00:15:53;;;;;;;6.43;3.30;;;;;;;1.86;100.00;101352.41;5417442;26;20236;-73
2024/04/21 00:18:19;;;;;;;5.87;3.70;;;;;;;1.77;100.00;101351.31;5410482;26;20237;-71
2024/04/21 00:20:47;;;;;;;5.67;3.70;;;;;;;1.70;100.00;101355.91;5417122;26;20276;-72
2024/04/21 00:23:12;;;;;;;7.63;3.57;;;;;;;1.62;100.00;101353.78;5416221;26;20840;-72
2024/04/21 00:25:43;;;;;;;6.87;3.83;;;;;;;1.59;100.00;101352.44;5416459;26;20228;-72
2024/04/21 00:28:08;;;;;;;4.47;3.17;;;;;;;1.53;100.00;101358.66;5412902;26;20371;-71
2024/04/21 00:30:36;;;;;;;5.83;3.60;;;;;;;1.47;100.00;101361.44;5409280;26;20719;-72
2024/04/21 00:33:02;;;;;;;4.83;3.23;;;;;;;1.41;100.00;101371.00;5416258;26;20283;-71
2024/04/21 00:35:32;;;;;;;4.70;3.20;;;;;;;1.37;100.00;101369.94;5416400;26;20237;-71
2024/04/21 00:37:57;;;;;;;4.93;3.60;;;;;;;1.34;100.00;101369.63;5408337;26;20747;-71
2024/04/21 00:40:25;;;;;;;6.30;3.97;;;;;;;1.29;100.00;101367.78;5416813;26;20232;-72
2024/04/21 00:43:00;;;;;;;4.10;2.90;;;;;;;1.26;100.00;101365.66;5416973;26;20301;-71
2024/04/21 00:45:29;;;;;;;6.57;3.77;;;;;;;1.21;100.00;101372.63;5417061;26;20268;-72
2024/04/21 00:47:58;;;;;;;4.83;3.47;;;;;;;1.14;100.00;101372.03;5416377;26;20306;-72
2024/04/21 00:50:27;;;;;;;6.50;4.10;;;;;;;1.11;100.00;101367.31;5416516;26;20236;-72
2024/04/21 00:52:54;;;;;;;5.63;4.00;;;;;;;1.06;100.00;101369.88;5414698;26;20616;-72
2024/04/21 00:55:25;;;;;;;5.23;4.03;;;;;;;1.04;100.00;101374.53;5416838;26;20594;-71
2024/04/21 00:57:51;;;;;;;6.23;3.83;;;;;;;0.98;100.00;101368.47;5393692;26;20758;-72
2024/04/21 01:00:25;;;;;;;7.87;4.30;;;;;;;0.96;100.00;101365.34;5397792;26;20229;-72
2024/04/21 01:02:50;;;;;;;5.40;3.70;;;;;;;0.97;100.00;101376.50;5379910;26;20268;-72
2024/04/21 01:05:18;;;;;;;5.33;3.87;;;;;;;0.96;100.00;101369.75;5416906;26;20220;-72
2024/04/21 01:07:44;;;;;;;6.40;4.07;;;;;;;0.91;100.00;101373.09;5416494;26;20284;-72
2024/04/21 01:10:12;;;;;;;7.07;4.23;;;;;;;0.92;100.00;101368.66;5416799;26;20809;-72
2024/04/21 01:12:43;;;;;;;11.67;4.30;;;;;;;0.96;100.00;101378.34;5383358;26;20773;-71
2024/04/21 01:15:12;;;;;;;6.37;3.83;;;;;;;0.91;100.00;101370.47;5416861;26;20267;-71
2024/04/21 01:17:40;;;;;;;6.40;4.00;;;;;;;0.90;100.00;101368.88;5408772;26;20222;-72
2024/04/21 01:20:11;;;;;;;9.30;4.37;;;;;;;0.91;100.00;101373.09;5416167;26;20232;-72
2024/04/21 01:22:42;;;;;;;6.57;4.37;;;;;;;0.93;100.00;101376.22;5410726;26;20297;-71
2024/04/21 01:25:16;;;;;;;8.23;4.43;;;;;;;0.92;100.00;101387.66;5414581;26;20237;-71
2024/04/21 01:27:42;;;;;;;6.23;4.33;;;;;;;0.91;100.00;101373.09;5416461;26;20325;-71
2024/04/21 01:30:10;;;;;;;5.20;4.07;;;;;;;0.88;100.00;101380.59;5416577;26;20331;-72
2024/04/21 01:32:37;;;;;;;6.50;4.53;;;;;;;0.88;100.00;101381.34;5417047;26;20275;-71
2024/04/21 01:35:05;;;;;;;5.90;4.43;;;;;;;0.84;100.00;101382.84;5387848;26;20280;-71
2024/04/21 01:37:31;;;;;;;5.83;4.03;;;;;;;0.85;100.00;101384.44;5417089;26;20335;-72
2024/04/21 01:40:01;;;;;;;4.90;3.87;;;;;;;0.82;100.00;101384.13;5401998;26;20241;-71
2024/04/21 01:42:27;;;;;;;6.80;4.23;;;;;;;0.80;100.00;101388.78;5396693;26;20329;-72
2024/04/21 01:44:55;;;;;;;7.93;4.20;;;;;;;0.76;100.00;101387.69;5410028;26;20248;-71
2024/04/21 01:47:20;;;;;;;6.77;4.23;;;;;;;0.73;100.00;101386.38;5416467;26;20229;-72
2024/04/21 01:49:48;;;;;;;7.87;4.53;;;;;;;0.69;100.00;101385.25;5416587;26;20353;-72
2024/04/21 01:52:14;;;;;;;6.57;4.87;;;;;;;0.71;100.00;101387.63;5416295;26;20259;-72
2024/04/21 01:54:45;;;;;;;5.23;4.03;;;;;;;0.68;100.00;101390.72;5416396;26;20654;-71
2024/04/21 01:57:13;;;;;;;6.70;4.57;;;;;;;0.65;100.00;101391.19;5385487;26;20322;-72
2024/04/21 01:59:41;;;;;;;6.80;4.50;;;;;;;0.59;100.00;101390.34;5385456;26;20236;-72
2024/04/21 02:02:07;;;;;;;7.33;4.80;;;;;;;0.59;100.00;101390.34;5414554;26;20244;-71
2024/04/21 02:04:35;;;;;;;6.13;4.40;;;;;;;0.56;100.00;101382.22;5409912;26;20271;-72
2024/04/21 02:07:00;;;;;;;6.77;4.17;;;;;;;0.53;100.00;101380.13;5416445;26;20357;-72
2024/04/21 02:09:31;;;;;;;7.40;4.63;;;;;;;0.51;100.00;101384.75;5416087;26;20722;-72
2024/04/21 02:11:57;;;;;;;6.33;4.17;;;;;;;0.51;100.00;101375.16;5379192;26;20612;-72
2024/04/21 02:14:27;;;;;;;5.73;4.20;;;;;;;0.44;100.00;101377.16;5383208;26;20244;-72
2024/04/21 02:16:53;;;;;;;7.27;4.57;;;;;;;0.35;100.00;101381.19;5415717;26;20279;-71
2024/04/21 02:19:21;;;;;;;5.40;4.20;;;;;;;0.34;100.00;101376.22;5415766;26;20727;-72
2024/04/21 02:21:46;;;;;;;7.87;5.03;;;;;;;0.31;100.00;101379.28;5415997;26;20236;-72
2024/04/21 02:24:14;;;;;;;6.27;4.73;;;;;;;0.26;100.00;101380.00;5415335;26;20228;-72
2024/04/21 02:26:40;;;;;;;7.80;4.33;;;;;;;0.19;100.00;101371.59;5415483;26;20359;-72
2024/04/21 02:29:08;;;;;;;6.93;4.53;;;;;;;0.12;100.00;101378.75;5415511;26;20239;-71
2024/04/21 02:31:36;;;;;;;10.07;4.73;;;;;;;0.08;100.00;101366.50;5415320;26;20225;-71
2024/04/21 02:34:04;;;;;;;6.80;4.80;;;;;;;0.03;100.00;101367.22;5415675;26;20638;-71
2024/04/21 02:36:31;;;;;;;6.87;4.73;;;;;;;-0.03;100.00;101360.38;5415175;26;20349;-71
2024/04/21 02:38:59;;;;;;;8.20;5.37;;;;;;;-0.07;100.00;101366.25;5415127;26;20284;-72
2024/04/21 02:41:25;;;;;;;8.53;4.97;;;;;;;-0.05;100.00;101372.00;5408221;26;20240;-71
2024/04/21 02:43:53;;;;;;;7.80;4.93;;;;;;;-0.09;100.00;101376.88;5414560;26;20341;-72
2024/04/21 02:46:19;;;;;;;7.60;4.97;;;;;;;-0.08;100.00;101368.06;5415398;26;20271;-71
2024/04/21 02:48:49;;;;;;;5.93;4.67;;;;;;;-0.15;100.00;101367.44;5415382;26;20630;-72
2024/04/21 02:51:15;;;;;;;6.90;4.20;;;;;;;-0.15;100.00;101370.03;5415163;26;20275;-72
2024/04/21 02:53:43;;;;;;;8.53;5.10;;;;;;;-0.14;100.00;101370.81;5395975;26;20249;-71
2024/04/21 02:56:08;;;;;;;7.13;5.13;;;;;;;-0.12;100.00;101369.56;5381937;26;20758;-72
2024/04/21 02:58:36;;;;;;;7.17;4.53;;;;;;;-0.09;100.00;101376.09;5415202;26;20224;-71
2024/04/21 03:01:03;;;;;;;9.87;5.20;;;;;;;-0.14;100.00;101370.81;5415443;26;20224;-72
2024/04/21 03:03:31;;;;;;;6.90;4.57;;;;;;;-0.12;100.00;101376.56;5415217;26;20304;-72
2024/04/21 03:05:59;;;;;;;10.00;5.50;;;;;;;-0.15;100.00;101370.03;5415706;26;20670;-72
2024/04/21 03:08:28;;;;;;;7.97;4.60;;;;;;;-0.14;100.00;101378.59;5415323;26;20232;-72
2024/04/21 03:10:53;;;;;;;8.00;5.03;;;;;;;-0.16;100.00;101383.22;5415836;26;20366;-72
2024/04/21 03:13:22;;;;;;;6.97;5.00;;;;;;;-0.20;100.00;101376.97;5415644;26;20657;-71
2024/04/21 03:15:50;;;;;;;8.10;5.03;;;;;;;-0.26;100.00;101373.47;5407681;26;20232;-72
2024/04/21 03:18:18;;;;;;;8.00;4.90;;;;;;;-0.26;100.00;101381.25;5415332;26;20233;-72
2024/04/21 03:20:54;;;;;;;7.97;4.67;;;;;;;-0.22;100.00;101375.63;5415288;26;20237;-72
2024/04/21 03:23:25;;;;;;;9.53;5.60;;;;;;;-0.27;100.00;101369.31;5415495;26;20334;-71
2024/04/21 03:25:50;;;;;;;12.23;6.07;;;;;;;-0.43;100.00;101375.28;5415026;26;20240;-72
2024/04/21 03:28:18;;;;;;;11.30;6.13;;;;;;;-0.46;100.00;101377.56;5386663;26;20731;-72
2024/04/21 03:30:53;;;;;;;12.93;5.60;;;;;;;-0.51;100.00;101370.44;5418441;26;20329;-71
2024/04/21 03:33:23;;;;;;;10.73;6.17;;;;;;;-0.55;100.00;101368.56;5386478;26;20741;-72
2024/04/21 03:36:07;;;;;;;9.83;5.80;;;;;;;-0.54;100.00;101372.72;5417977;26;20251;-72
2024/04/21 03:38:41;;;;;;;10.97;6.47;;;;;;;-0.56;100.00;101378.16;5418025;26;20609;-72
2024/04/21 03:41:09;;;;;;;13.17;5.80;;;;;;;-0.55;100.00;101384.91;5418724;26;20228;-72
2024/04/21 03:43:40;;;;;;;9.37;5.53;;;;;;;-0.55;100.00;101377.13;5418025;26;20237;-72
2024/04/21 03:46:05;;;;;;;10.43;5.57;;;;;;;-0.54;100.00;101372.72;5418066;26;20228;-72
2024/04/21 03:48:34;;;;;;;9.33;5.97;;;;;;;-0.56;100.00;101388.53;5418073;26;20373;-72
2024/04/21 03:50:59;;;;;;;10.03;5.57;;;;;;;-0.52;100.00;101386.25;5418060;26;20702;-72
2024/04/21 03:53:27;;;;;;;9.00;5.23;;;;;;;-0.54;100.00;101390.88;5418264;26;20244;-71
2024/04/21 03:55:55;;;;;;;9.93;5.93;;;;;;;-0.57;100.00;101388.75;5418237;26;20336;-72
2024/04/21 03:58:24;;;;;;;9.93;5.70;;;;;;;-0.57;100.00;101387.97;5418114;26;20224;-72
2024/04/21 04:00:50;;;;;;;9.27;6.00;;;;;;;-0.56;100.00;101391.13;5417793;26;20288;-72
2024/04/21 04:03:18;;;;;;;8.87;5.90;;;;;;;-0.54;100.00;101390.88;5417652;26;20353;-71
2024/04/21 04:05:45;;;;;;;11.20;5.97;;;;;;;-0.51;100.00;101400.81;5417382;26;20240;-72
2024/04/21 04:08:13;;;;;;;11.67;6.37;;;;;;;-0.51;100.00;101396.41;5417007;26;20292;-72
2024/04/21 04:10:42;;;;;;;10.50;6.30;;;;;;;-0.50;100.00;101408.34;5417527;26;20759;-72
2024/04/21 04:13:17;;;;;;;12.00;5.80;;;;;;;-0.42;100.00;101412.38;5410353;26;20232;-72
2024/04/21 04:15:45;;;;;;;13.13;6.63;;;;;;;-0.42;100.00;101418.34;5398923;26;20232;-72
2024/04/21 04:18:13;;;;;;;10.57;6.37;;;;;;;-0.38;100.00;101420.50;5417205;26;20358;-72
2024/04/21 04:20:39;;;;;;;9.93;6.00;;;;;;;-0.34;100.00;101422.38;5417502;26;20284;-71
2024/04/21 04:23:10;;;;;;;11.63;6.53;;;;;;;-0.31;100.00;101424.53;5417185;26;20240;-72
2024/04/21 04:25:35;;;;;;;13.37;6.40;;;;;;;-0.26;100.00;101422.78;5417863;26;20221;-72
2024/04/21 04:28:03;;;;;;;13.30;7.23;;;;;;;-0.22;100.00;101433.47;5417026;26;20291;-72
2024/04/21 04:30:31;;;;;;;11.03;7.07;;;;;;;-0.15;100.00;101429.72;5417226;26;20292;-72
2024/04/21 04:32:59;;;;;;;12.33;7.10;;;;;;;-0.10;100.00;101423.84;5383379;26;20308;-71
2024/04/21 04:35:25;;;;;;;11.23;7.23;;;;;;;-0.05;100.00;101424.69;5416350;26;20838;-71
2024/04/21 04:37:53;;;;;;;13.83;8.50;;;;;;;0.02;100.00;101437.53;5416521;26;20245;-71
2024/04/21 04:40:19;;;;;;;15.23;8.67;;;;;;;0.07;100.00;101433.19;5416816;26;20576;-72
2024/04/21 04:42:48;;;;;;;24.07;12.60;;;;;;;0.11;100.00;101436.13;5416614;26;20262;-72
2024/04/21 04:45:20;;;;;;;17.10;9.77;;;;;;;0.19;100.00;101438.31;5385393;26;20220;-71
2024/04/21 04:47:51;;;;;;;19.07;9.97;;;;;;;0.25;100.00;101440.75;5416223;26;20228;-72
2024/04/21 04:50:25;;;;;;;14.20;7.90;;;;;;;0.31;100.00;101447.59;5416890;26;20275;-71
2024/04/21 04:52:56;;;;;;;15.10;9.00;;;;;;;0.35;100.00;101459.09;5416952;26;20291;-72
2024/04/21 04:55:22;;;;;;;14.50;8.50;;;;;;;0.41;100.00;101454.75;5416974;26;20271;-71
2024/04/21 04:57:50;;;;;;;15.83;8.30;;;;;;;0.46;100.00;101458.22;5399395;26;20252;-72
2024/04/21 05:00:16;;;;;;;12.93;7.97;;;;;;;0.53;100.00;101456.25;5416716;26;20300;-72
2024/04/21 05:02:43;;;;;;;17.03;7.80;;;;;;;0.59;100.00;101468.31;5414415;26;21081;-72
2024/04/21 05:05:12;;;;;;;15.87;9.43;;;;;;;0.66;100.00;101462.94;5414625;26;20267;-72
2024/04/21 05:07:40;;;;;;;17.50;10.30;;;;;;;0.71;100.00;101463.81;5415764;26;20305;-71
2024/04/21 05:10:06;;;;;;;13.63;8.07;;;;;;;0.78;100.00;101480.00;5419280;26;20242;-72
2024/04/21 05:12:34;;;;;;;15.23;8.63;;;;;;;0.85;100.00;101474.63;5415709;26;20286;-72
2024/04/21 05:14:59;;;;;;;13.00;8.23;;;;;;;0.92;100.00;101475.25;5416058;26;20240;-72
2024/04/21 05:17:27;;;;;;;19.13;9.23;;;;;;;1.01;100.00;101476.41;5415491;26;20279;-73
2024/04/21 05:19:53;;;;;;;18.40;9.23;;;;;;;1.09;100.00;101473.41;5384140;26;20274;-72
2024/04/21 05:22:29;;;;;;;13.20;8.43;;;;;;;1.18;100.00;101475.34;5380124;26;897375;-72
2024/04/21 05:24:54;;;;;;;14.87;8.60;;;;;;;1.24;100.00;101487.38;5414998;26;20670;-72
2024/04/21 05:27:22;;;;;;;12.93;8.43;;;;;;;1.34;100.00;101489.31;5415178;26;20229;-72
2024/04/21 05:29:50;;;;;;;15.20;8.87;;;;;;;1.40;100.00;101491.72;5416003;26;20358;-73
2024/04/21 05:32:18;;;;;;;14.10;8.93;;;;;;;1.47;100.00;101494.97;5415024;26;20249;-72
2024/04/21 05:34:44;;;;;;;15.03;8.83;;;;;;;1.56;100.00;101498.69;5415306;26;20314;-72
2024/04/21 05:37:12;;;;;;;15.37;8.50;;;;;;;1.64;100.00;101505.28;5414886;26;20232;-73
2024/04/21 05:39:40;;;;;;;14.30;8.07;;;;;;;1.73;100.00;101499.41;5414634;26;20236;-72
2024/04/21 05:42:08;;;;;;;15.47;7.80;;;;;;;1.81;100.00;101506.75;5414435;26;20248;-72
2024/04/21 05:44:35;;;;;;;12.53;7.17;;;;;;;1.87;100.00;101505.78;5414455;26;20584;-72
2024/04/21 05:47:03;;;;;;;12.33;7.43;;;;;;;1.96;100.00;101498.31;5414075;26;20236;-72
2024/04/21 05:49:29;;;;;;;10.73;6.17;;;;;;;2.07;100.00;101511.19;5413363;26;20301;-72
2024/04/21 05:52:00;;;;;;;9.23;6.40;;;;;;;2.13;100.00;101509.44;5413913;26;20236;-72
2024/04/21 05:54:26;;;;;;;9.47;5.77;;;;;;;2.23;100.00;101510.28;5406826;26;20236;-72
2024/04/21 05:56:57;;;;;;;11.10;5.77;;;;;;;2.30;100.00;101516.09;5413479;26;20324;-72
2024/04/21 05:59:26;;;;;;;9.70;5.40;;;;;;;2.38;100.00;101514.88;5396623;26;20533;-72
2024/04/21 06:01:52;;;;;;;8.87;4.87;;;;;;;2.48;100.00;101520.94;5408523;26;20230;-72
2024/04/21 06:04:19;;;;;;;8.50;5.13;;;;;;;2.57;100.00;101521.25;5411994;26;20673;-72
2024/04/21 06:06:45;;;;;;;11.07;5.37;;;;;;;2.64;100.00;101530.44;5414077;26;20372;-71
2024/04/21 06:09:13;;;;;;;6.87;4.70;;;;;;;2.68;100.00;101526.31;5413028;26;20253;-72
2024/04/21 06:11:39;;;;;;;7.13;4.43;;;;;;;2.75;100.00;101531.31;5398571;26;20279;-72
2024/04/21 06:14:12;;;;;;;6.50;4.47;;;;;;;2.81;100.00;101536.28;5410098;26;20241;-71
2024/04/21 06:16:38;;;;;;;7.93;4.33;;;;;;;2.85;100.00;101539.22;5401804;26;20568;-72
2024/04/21 06:19:06;;;;;;;6.77;4.33;;;;;;;2.92;100.00;101531.94;5405110;26;20307;-72
2024/04/21 06:21:34;;;;;;;6.83;4.33;;;;;;;3.00;100.00;101545.28;5401852;26;20240;-71
2024/04/21 06:24:07;;;;;;;8.07;4.13;;;;;;;3.09;100.00;101543.00;5380156;26;20725;-70
2024/04/21 06:26:33;;;;;;;8.00;4.47;;;;;;;3.13;100.00;101546.69;5406889;26;21028;-72
2024/04/21 06:29:06;;;;;;;6.93;4.10;;;;;;;3.18;100.00;101546.69;5413263;26;20287;-71
2024/04/21 06:31:37;;;;;;;5.17;3.80;;;;;;;3.22;100.00;101545.16;5394442;26;20240;-72
2024/04/21 06:34:09;;;;;;;5.90;3.87;;;;;;;3.26;100.00;101543.63;5409036;26;20240;-71
2024/04/21 06:36:35;;;;;;;9.23;4.70;;;;;;;3.31;100.00;101548.88;5407900;26;20268;-73
2024/04/21 06:39:03;;;;;;;8.33;4.80;;;;;;;3.41;100.00;101546.28;5414260;26;20769;-72
2024/04/21 06:41:29;;;;;;;5.73;3.87;;;;;;;3.52;100.00;101548.69;5411866;26;20342;-71
2024/04/21 06:43:58;;;;;;;5.23;3.57;;;;;;;3.61;100.00;101554.22;5386606;26;20256;-71
2024/04/21 06:46:24;;;;;;;8.57;3.97;;;;;;;3.69;100.00;101557.09;5410679;26;20252;-72
2024/04/21 06:48:54;;;;;;;7.47;3.80;;;;;;;3.73;100.00;101555.56;5412009;26;20330;-72
2024/04/21 06:51:20;;;;;;;9.27;3.93;;;;;;;3.77;100.00;101555.84;5412754;26;20271;-71
2024/04/21 06:53:48;;;;;;;6.67;4.20;;;;;;;3.83;100.00;101553.00;5411344;26;20248;-72
2024/04/21 06:56:14;;;;;;;6.40;3.73;;;;;;;3.91;100.00;101556.94;5380844;26;20298;-72
2024/04/21 06:58:42;;;;;;;5.30;3.60;;;;;;;3.99;100.00;101562.44;5403526;26;20246;-72
2024/04/21 07:01:07;;;;;;;7.27;3.57;;;;;;;4.09;100.00;101570.31;5408009;26;20730;-72
2024/04/21 07:03:35;;;;;;;5.30;3.03;;;;;;;4.19;100.00;101572.16;5427004;26;20291;-71
2024/04/21 07:06:03;;;;;;;3.60;2.70;;;;;;;4.23;100.00;101562.75;5410241;26;20232;-70
2024/04/21 07:08:31;;;;;;;3.73;2.70;;;;;;;4.28;100.00;101570.59;5412170;26;20268;-72
2024/04/21 07:10:56;;;;;;;4.47;2.50;;;;;;;4.32;100.00;101571.66;5415371;26;20345;-71
2024/04/21 07:13:25;;;;;;;5.07;2.97;;;;;;;4.34;100.00;101570.34;5414924;26;20244;-72
2024/04/21 07:15:50;;;;;;;4.23;2.50;;;;;;;4.37;100.00;101574.28;5418517;26;20236;-72
2024/04/21 07:18:18;;;;;;;6.50;3.47;;;;;;;4.36;100.00;101575.31;5414019;26;20299;-72
2024/04/21 07:20:43;;;;;;;7.83;3.43;;;;;;;4.40;100.00;101582.38;5410688;26;20695;-72
2024/04/21 07:23:14;;;;;;;3.83;2.60;;;;;;;4.49;100.00;101580.03;5413470;26;20251;-71
2024/04/21 07:25:39;;;;;;;6.20;2.90;;;;;;;4.55;100.00;101582.41;5406295;26;20284;-72
2024/04/21 07:28:08;;;;;;;2.97;2.20;;;;;;;4.62;100.00;101584.75;5413938;26;20687;-70
2024/04/21 07:30:34;;;;;;;4.50;2.37;;;;;;;4.64;100.00;101577.41;5403862;26;20775;-70
2024/04/21 07:33:02;;;;;;;3.80;2.50;;;;;;;4.73;100.00;101583.72;5409504;26;20830;-70
2024/04/21 07:35:28;;;;;;;3.23;2.37;;;;;;;4.81;100.00;101573.50;5406241;26;20980;-69
2024/04/21 07:37:56;;;;;;;3.77;2.20;;;;;;;4.92;100.00;101582.91;5411523;26;20337;-70
2024/04/21 07:40:24;;;;;;;4.83;2.23;;;;;;;5.01;100.00;101596.25;5404969;26;20349;-70
2024/04/21 07:42:52;;;;;;;2.77;2.17;;;;;;;5.03;100.00;101574.00;5412134;26;20241;-70
2024/04/21 07:45:20;;;;;;;4.20;2.20;;;;;;;5.14;100.00;101580.78;5402283;26;20352;-71
2024/04/21 07:47:48;;;;;;;2.93;2.33;;;;;;;5.21;100.00;101581.31;5404447;26;20779;-70
2024/04/21 07:50:14;;;;;;;4.10;2.23;;;;;;;5.27;100.00;101579.44;5370458;26;20282;-70
2024/04/21 07:52:42;;;;;;;4.07;2.30;;;;;;;5.35;100.00;101582.31;5410861;26;20241;-70
2024/04/21 07:55:07;;;;;;;4.53;2.27;;;;;;;5.36;100.00;101583.09;5405312;26;20691;-71
2024/04/21 07:57:37;;;;;;;4.23;2.50;;;;;;;5.41;100.00;101588.31;5407035;26;20246;-70
2024/04/21 08:00:05;;;;;;;3.60;2.13;;;;;;;5.44;100.00;101588.56;5381025;26;20386;-69
2024/04/21 08:02:39;;;;;;;3.47;2.20;;;;;;;5.51;100.00;101583.06;5405470;26;20232;-69
2024/04/21 08:05:05;;;;;;;2.80;2.00;;;;;;;5.53;100.00;101581.72;5409260;26;20224;-70
2024/04/21 08:07:33;;;;;;;5.93;2.43;;;;;;;5.59;100.00;101590.38;5410720;26;20221;-71
2024/04/21 08:09:58;;;;;;;4.77;2.40;;;;;;;5.68;100.00;101591.38;5398332;26;20240;-71
2024/04/21 08:12:26;;;;;;;2.47;2.23;;;;;;;5.72;100.00;101595.81;5379002;26;20373;-69
2024/04/21 08:14:54;;;;;;;2.83;2.13;;;;;;;5.78;100.00;101599.97;5410261;26;20245;-71
2024/04/21 08:17:22;;;;;;;3.00;2.20;;;;;;;5.79;100.00;101593.69;5409437;26;20579;-71
2024/04/21 08:19:48;;;;;;;3.60;2.13;;;;;;;5.83;100.00;101610.47;5409138;26;20228;-69
2024/04/21 08:22:16;;;;;;;4.50;2.10;;;;;;;5.88;100.00;101588.69;5405148;26;20294;-70
2024/04/21 08:24:41;;;;;;;1.93;1.57;;;;;;;5.91;100.00;101590.78;5411269;26;20310;-70
2024/04/21 08:27:09;;;;;;;2.90;1.93;;;;;;;5.97;100.00;101592.31;5407171;26;20252;-69
2024/04/21 08:29:35;;;;;;;2.80;2.10;;;;;;;6.04;100.00;101598.84;5401210;26;20348;-70
2024/04/21 08:32:06;;;;;;;3.83;2.10;;;;;;;6.05;100.00;101602.22;5409125;26;20244;-70
2024/04/21 08:34:32;;;;;;;4.20;2.23;;;;;;;6.10;100.00;101600.38;5407708;26;20335;-71
2024/04/21 08:37:00;;;;;;;2.00;1.80;;;;;;;6.20;100.00;101600.31;5407893;26;20707;-70
2024/04/21 08:39:26;;;;;;;2.17;1.90;;;;;;;6.29;100.00;101608.41;5377817;26;20761;-70
2024/04/21 08:41:57;;;;;;;5.10;2.10;;;;;;;6.33;100.00;101610.19;5410292;26;20228;-69
2024/04/21 08:44:23;;;;;;;3.53;1.90;;;;;;;6.39;100.00;101597.84;5413382;26;20262;-69
2024/04/21 08:46:51;;;;;;;4.33;2.13;;;;;;;6.50;100.00;101607.22;5407505;26;20833;-70
2024/04/21 08:49:20;;;;;;;3.23;2.30;;;;;;;6.59;100.00;101595.09;5404106;26;20248;-69
2024/04/21 08:51:50;;;;;;;4.13;2.10;;;;;;;6.64;97.63;101603.69;5379289;26;20302;-70
2024/04/21 08:54:16;;;;;;;3.07;1.90;;;;;;;6.72;100.00;101597.84;5409126;26;20300;-69
2024/04/21 08:56:47;;;;;;;5.77;2.10;;;;;;;6.77;97.61;101605.69;5374645;26;20690;-71
2024/04/21 08:59:14;;;;;;;4.07;2.20;;;;;;;6.76;97.60;101591.00;5409173;26;20232;-70
2024/04/21 09:01:42;;;;;;;3.03;2.13;;;;;;;6.79;87.36;101598.31;5372558;26;20237;-69
2024/04/21 09:04:08;;;;;;;5.87;2.53;;;;;;;6.78;100.00;101591.50;5407269;26;20330;-69
2024/04/21 09:06:41;;;;;;;6.13;3.33;;;;;;;6.84;100.00;101595.66;5405390;26;20240;-72
2024/04/21 09:09:07;;;;;;;2.93;2.20;;;;;;;6.96;84.98;101595.28;5407573;26;20704;-70
2024/04/21 09:11:35;;;;;;;3.53;2.20;;;;;;;6.95;100.00;101597.13;5404629;26;20241;-70
2024/04/21 09:14:00;;;;;;;3.47;1.83;;;;;;;6.90;100.00;101594.56;5407255;26;20811;-71
2024/04/21 09:16:28;;;;;;;2.20;1.67;;;;;;;6.93;100.00;101601.09;5407379;26;20287;-69
2024/04/21 09:18:54;;;;;;;4.60;2.47;;;;;;;6.93;100.00;101599.25;5402359;26;20242;-69
2024/04/21 09:21:22;;;;;;;2.80;2.40;;;;;;;7.03;95.49;101591.28;5407045;26;20233;-70
2024/04/21 09:23:50;;;;;;;3.03;2.07;;;;;;;7.16;97.70;101590.66;5407526;26;20312;-69
2024/04/21 09:26:18;;;;;;;6.63;4.10;;;;;;;7.31;78.81;101581.81;5404429;26;20225;-70
2024/04/21 09:28:43;;;;;;;3.50;2.43;;;;;;;7.46;100.00;101589.53;5402777;26;20724;-70
2024/04/21 09:31:11;;;;;;;4.70;3.73;;;;;;;7.55;84.50;101595.72;5406258;26;20256;-69
2024/04/21 09:33:37;;;;;;;4.10;2.67;;;;;;;7.68;100.00;101595.06;5400646;26;20305;-69
2024/04/21 09:36:07;;;;;;;6.43;4.23;;;;;;;7.69;100.00;101581.66;5402135;26;20841;-69
2024/04/21 09:38:34;;;;;;;4.27;3.63;;;;;;;7.80;87.19;101588.34;5377225;26;20284;-69
2024/04/21 09:41:06;;;;;;;4.13;3.23;;;;;;;7.83;85.46;101598.28;5404169;26;20242;-70
2024/04/21 09:43:33;;;;;;;6.53;3.60;;;;;;;7.89;93.46;101591.91;5404530;26;20423;-69
2024/04/21 09:46:02;;;;;;;2.93;2.30;;;;;;;7.98;90.94;101584.94;5403978;26;20309;-70
2024/04/21 09:48:29;;;;;;;2.73;2.17;;;;;;;8.06;83.66;101591.41;5405847;26;20305;-71
2024/04/21 09:50:57;;;;;;;3.60;2.90;;;;;;;8.14;81.11;101582.91;5404743;26;20236;-71
2024/04/21 09:53:25;;;;;;;3.73;2.03;;;;;;;8.28;88.79;101587.19;5372255;26;20365;-69
2024/04/21 09:55:58;;;;;;;2.50;2.30;;;;;;;8.43;87.14;101583.56;5406422;26;20294;-70
2024/04/21 09:58:27;;;;;;;4.03;2.27;;;;;;;8.48;87.23;101589.53;5368834;26;20327;-70
2024/04/21 10:00:58;;;;;;;2.90;2.60;;;;;;;8.61;93.93;101585.38;5400953;26;20240;-70
2024/04/21 10:03:24;;;;;;;3.03;2.13;;;;;;;8.68;61.64;101576.03;5401345;26;20602;-69
2024/04/21 10:05:53;;;;;;;1.80;1.70;;;;;;;8.76;70.87;101583.25;5406917;26;20232;-71
2024/04/21 10:08:19;;;;;;;1.67;1.57;;;;;;;8.67;65.57;101577.13;5405183;26;20739;-69
2024/04/21 10:10:49;;;;;;;4.20;2.07;;;;;;;8.56;61.33;101573.09;5402762;26;20236;-69
2024/04/21 10:13:15;;;;;;;3.90;1.60;;;;;;;8.53;80.35;101584.19;5401277;26;20279;-70
2024/04/21 10:15:47;;;;;;;3.80;2.30;;;;;;;8.48;70.10;101589.53;5406384;26;20287;-71
2024/04/21 10:18:18;;;;;;;2.33;1.80;;;;;;;8.50;71.14;101591.88;5400880;26;20339;-73
2024/04/21 10:20:46;;;;;;;2.73;1.90;;;;;;;8.48;60.20;101579.00;5401620;26;20229;-69
2024/04/21 10:23:11;;;;;;;5.27;2.83;;;;;;;8.43;83.25;101581.69;5404169;26;20253;-69
2024/04/21 10:25:43;;;;;;;2.27;1.93;;;;;;;8.29;61.58;101580.84;5403103;26;20336;-69
2024/04/21 10:28:24;;;;;;;3.70;2.27;;;;;;;8.25;67.94;101584.34;5407243;26;20243;-73
2024/04/21 10:31:05;;;;;;;2.23;1.90;;;;;;;8.14;67.78;101581.03;5405184;26;20778;-69
2024/04/21 10:33:31;;;;;;;5.97;3.27;;;;;;;8.06;82.30;101576.41;5373480;26;20599;-69
2024/04/21 10:35:59;;;;;;;4.77;3.10;;;;;;;8.09;90.01;101581.13;5404675;26;20270;-70
2024/04/21 10:38:25;;;;;;;2.53;2.03;;;;;;;8.18;75.15;101565.47;5405621;26;20355;-69
2024/04/21 10:40:53;;;;;;;2.83;2.53;;;;;;;8.36;63.65;101578.66;5406128;26;20239;-69
2024/04/21 10:43:20;;;;;;;6.07;3.27;;;;;;;8.52;79.21;101568.66;5402304;26;20309;-72
2024/04/21 10:45:48;;;;;;;2.03;1.70;;;;;;;8.75;67.39;101575.69;5404187;26;20240;-71
2024/04/21 10:48:18;;;;;;;2.80;2.30;;;;;;;8.94;65.75;101563.22;5400316;26;20300;-70
2024/04/21 10:50:47;;;;;;;2.90;1.90;;;;;;;9.10;82.72;101559.22;5375820;26;20239;-71
2024/04/21 10:53:12;;;;;;;4.17;2.10;;;;;;;9.18;71.65;101569.09;5405420;26;20579;-70
2024/04/21 10:55:41;;;;;;;2.30;1.80;;;;;;;9.19;60.37;101557.50;5403702;26;20337;-70
2024/04/21 10:58:08;;;;;;;4.10;2.00;;;;;;;9.28;58.80;101563.66;5403717;26;20271;-70
2024/04/21 11:00:38;;;;;;;2.00;1.80;;;;;;;9.33;57.88;101569.63;5398568;26;20249;-70
2024/04/21 11:03:04;;;;;;;3.20;2.13;;;;;;;9.35;55.58;101564.03;5401158;26;20268;-70
2024/04/21 11:05:42;;;;;;;5.27;1.73;;;;;;;9.51;67.50;101560.81;5402467;26;20820;-70
2024/04/21 11:08:08;;;;;;;2.83;1.80;;;;;;;9.58;54.57;101563.81;5400654;26;20334;-70
2024/04/21 11:10:36;;;;;;;1.57;1.47;;;;;;;9.54;60.54;101562.09;5393753;26;20248;-69
2024/04/21 11:13:01;;;;;;;2.23;1.60;;;;;;;9.56;69.51;101567.84;5397828;26;20256;-70
2024/04/21 11:15:29;;;;;;;1.70;1.60;;;;;;;9.57;66.41;101559.63;5400818;26;20842;-69
2024/04/21 11:17:58;;;;;;;2.00;1.73;;;;;;;9.44;57.93;101564.91;5403832;26;20238;-70
2024/04/21 11:20:27;;;;;;;1.60;1.50;;;;;;;9.34;53.78;101559.84;5371328;26;20560;-69
2024/04/21 11:22:55;;;;;;;1.90;1.37;;;;;;;9.39;78.20;101557.13;5395912;26;20317;-71
2024/04/21 11:25:26;;;;;;;1.60;1.50;;;;;;;9.40;74.69;101556.81;5367200;26;20251;-73
2024/04/21 11:27:51;;;;;;;2.30;1.83;;;;;;;9.31;57.24;101558.56;5366504;26;20734;-70